createdAt,value
2019-02-26T00:01:18.523Z,52.70
2019-02-26T00:03:45.820Z,52.70
2019-02-26T00:06:16.123Z,52.80
2019-02-26T00:08:47.180Z,52.90
2019-02-26T00:11:15.011Z,53.50
2019-02-26T00:13:43.478Z,53.40
2019-02-26T00:16:14.964Z,53.60
2019-02-26T00:18:42.722Z,51.90
2019-02-26T00:21:11.334Z,51.90
2019-02-26T00:23:39.773Z,52.70
2019-02-26T00:26:10.467Z,52.10
2019-02-26T00:28:39.150Z,52.20
2019-02-26T00:31:08.575Z,51.50
2019-02-26T00:33:37.184Z,51.60
2019-02-26T00:36:07.183Z,52.50
2019-02-26T00:38:37.567Z,52.20
2019-02-26T00:41:06.155Z,52.70
2019-02-26T00:43:36.734Z,52.80
2019-02-26T00:46:05.597Z,52.50
2019-02-26T00:48:35.984Z,51.50
2019-02-26T00:51:05.275Z,51.60
2019-02-26T00:53:33.709Z,52.20
2019-02-26T00:56:03.251Z,51.80
2019-02-26T00:58:36.981Z,51.60
2019-02-26T01:01:02.520Z,51.20
2019-02-26T01:03:31.334Z,51.90
2019-02-26T01:06:01.467Z,53.40
2019-02-26T01:08:29.957Z,52.70
2019-02-26T01:10:59.204Z,52.90
2019-02-26T01:13:30.087Z,53.40
2019-02-26T01:15:58.784Z,52.90
2019-02-26T01:18:28.863Z,50.70
2019-02-26T01:20:59.674Z,50.90
2019-02-26T01:23:28.949Z,51.00
2019-02-26T01:25:57.665Z,50.30
2019-02-26T01:28:27.100Z,50.80
2019-02-26T01:30:57.935Z,50.90
2019-02-26T01:33:29.682Z,50.10
2019-02-26T01:35:58.000Z,50.40
2019-02-26T01:38:27.506Z,50.70
2019-02-26T01:40:56.063Z,50.00
2019-02-26T01:43:24.882Z,50.50
2019-02-26T01:45:55.407Z,50.60
2019-02-26T01:48:23.971Z,50.80
2019-02-26T01:50:54.539Z,51.40
2019-02-26T01:53:23.721Z,50.00
2019-02-26T01:55:52.382Z,50.70
2019-02-26T01:58:20.853Z,50.90
2019-02-26T02:00:49.659Z,50.50
2019-02-26T02:03:18.634Z,50.10
2019-02-26T02:05:50.282Z,50.30
2019-02-26T02:08:22.069Z,50.80
2019-02-26T02:10:49.625Z,52.10
2019-02-26T02:13:19.569Z,50.20
2019-02-26T02:15:48.013Z,51.00
2019-02-26T02:18:18.222Z,50.00
2019-02-26T02:20:46.989Z,50.60
2019-02-26T02:23:15.805Z,50.00
2019-02-26T02:25:45.674Z,50.80
2019-02-26T02:28:14.241Z,50.00
2019-02-26T02:30:42.691Z,49.00
2019-02-26T02:33:11.295Z,49.20
2019-02-26T02:35:39.772Z,49.60
2019-02-26T02:38:08.321Z,50.00
2019-02-26T02:40:38.056Z,50.10
2019-02-26T02:43:09.802Z,50.60
2019-02-26T02:45:37.182Z,51.50
2019-02-26T02:48:06.233Z,51.00
2019-02-26T02:50:35.822Z,51.10
2019-02-26T02:53:04.273Z,49.80
2019-02-26T02:55:32.813Z,49.20
2019-02-26T02:58:01.270Z,48.80
2019-02-26T03:00:32.250Z,48.30
2019-02-26T03:02:59.957Z,48.40
2019-02-26T03:05:31.317Z,49.20
2019-02-26T03:07:58.602Z,48.60
2019-02-26T03:10:30.809Z,48.40
2019-02-26T03:13:00.092Z,48.50
2019-02-26T03:15:30.059Z,49.70
2019-02-26T03:17:57.993Z,49.60
2019-02-26T03:20:28.721Z,50.80
2019-02-26T03:22:57.091Z,49.60
2019-02-26T03:25:26.995Z,50.70
2019-02-26T03:27:55.985Z,51.00
2019-02-26T03:30:32.072Z,51.00
2019-02-26T03:33:00.364Z,49.30
2019-02-26T03:35:25.151Z,49.00
2019-02-26T03:37:55.644Z,50.60
2019-02-26T03:40:54.710Z,49.60
2019-02-26T03:43:22.861Z,50.20
2019-02-26T03:45:51.359Z,48.90
2019-02-26T03:48:20.539Z,49.20
2019-02-26T03:50:49.130Z,49.00
2019-02-26T03:53:17.646Z,49.60
2019-02-26T03:55:46.459Z,49.00
2019-02-26T03:58:14.893Z,48.60
2019-02-26T04:00:43.982Z,48.00
2019-02-26T04:03:15.136Z,49.70
2019-02-26T04:05:44.361Z,49.50
2019-02-26T04:08:12.802Z,50.40
2019-02-26T04:10:41.277Z,49.00
2019-02-26T04:13:09.725Z,48.60
2019-02-26T04:15:38.600Z,48.60
2019-02-26T04:18:07.385Z,48.40
2019-02-26T04:20:35.820Z,49.30
2019-02-26T04:23:04.248Z,49.80
2019-02-26T04:25:36.588Z,49.90
2019-02-26T04:28:17.334Z,49.00
2019-02-26T04:30:57.990Z,49.10
2019-02-26T04:33:53.002Z,49.10
2019-02-26T04:36:26.756Z,49.40
2019-02-26T04:39:23.593Z,49.70
2019-02-26T04:41:55.113Z,49.80
2019-02-26T04:44:50.059Z,49.90
2019-02-26T04:47:18.891Z,50.50
2019-02-26T04:49:48.546Z,49.90
2019-02-26T04:52:17.540Z,49.70
2019-02-26T04:54:46.438Z,49.10
2019-02-26T04:57:14.882Z,49.00
2019-02-26T04:59:44.093Z,49.20
2019-02-26T05:02:12.839Z,49.30
2019-02-26T05:04:42.209Z,49.60
2019-02-26T05:07:13.435Z,50.00
2019-02-26T05:09:41.423Z,49.40
2019-02-26T05:12:10.222Z,49.00
2019-02-26T05:14:38.665Z,49.60
2019-02-26T05:17:07.118Z,49.60
2019-02-26T05:19:36.476Z,49.90
2019-02-26T05:22:07.021Z,49.60
2019-02-26T05:24:35.696Z,49.40
2019-02-26T05:27:18.615Z,49.90
2019-02-26T05:29:48.803Z,49.90
2019-02-26T05:32:16.734Z,50.20
2019-02-26T05:34:47.380Z,50.40
2019-02-26T05:37:15.376Z,49.10
2019-02-26T05:39:45.853Z,49.80
2019-02-26T05:42:14.018Z,50.50
2019-02-26T05:44:42.777Z,49.60
2019-02-26T05:47:13.013Z,48.90
2019-02-26T05:49:43.402Z,48.40
2019-02-26T05:52:11.610Z,49.50
2019-02-26T05:54:40.057Z,49.60
2019-02-26T05:57:10.800Z,49.20
2019-02-26T05:59:39.167Z,49.00
2019-02-26T06:02:10.585Z,49.30
2019-02-26T06:04:40.843Z,48.70
2019-02-26T06:07:08.918Z,48.90
2019-02-26T06:09:37.346Z,48.70
2019-02-26T06:12:05.838Z,50.20
2019-02-26T06:14:36.333Z,50.60
2019-02-26T06:17:04.440Z,48.90
2019-02-26T06:19:42.333Z,48.40
2019-02-26T06:22:16.688Z,48.50
2019-02-26T06:24:42.106Z,48.30
2019-02-26T06:27:13.202Z,49.30
2019-02-26T06:29:41.096Z,49.20
2019-02-26T06:32:12.272Z,49.30
2019-02-26T06:34:40.786Z,48.40
2019-02-26T06:37:20.650Z,48.90
2019-02-26T06:39:52.622Z,48.70
2019-02-26T06:42:19.395Z,48.60
2019-02-26T06:44:49.432Z,49.00
2019-02-26T06:47:18.463Z,48.20
2019-02-26T06:49:48.422Z,47.90
2019-02-26T06:52:18.035Z,48.20
2019-02-26T06:54:50.584Z,47.40
2019-02-26T06:57:16.698Z,46.50
2019-02-26T06:59:45.162Z,46.70
2019-02-26T07:02:13.605Z,47.10
2019-02-26T07:04:42.094Z,47.70
2019-02-26T07:07:14.166Z,47.70
2019-02-26T07:09:41.928Z,47.70
2019-02-26T07:12:11.202Z,47.40
2019-02-26T07:14:39.678Z,47.20
2019-02-26T07:17:08.471Z,47.00
2019-02-26T07:19:38.143Z,47.90
2019-02-26T07:22:08.292Z,47.60
2019-02-26T07:24:38.586Z,47.10
2019-02-26T07:27:09.139Z,46.90
2019-02-26T07:29:40.154Z,46.80
2019-02-26T07:32:08.077Z,46.50
2019-02-26T07:34:36.535Z,45.60
2019-02-26T07:37:06.501Z,45.40
2019-02-26T07:39:35.565Z,46.50
2019-02-26T07:42:04.263Z,45.80
2019-02-26T07:44:32.700Z,45.40
2019-02-26T07:47:03.664Z,46.00
2019-02-26T07:49:31.341Z,45.80
2019-02-26T07:52:00.354Z,45.70
2019-02-26T07:54:30.086Z,44.70
2019-02-26T07:57:00.595Z,44.90
2019-02-26T07:59:32.337Z,45.10
2019-02-26T08:02:01.235Z,45.00
2019-02-26T08:04:31.781Z,44.80
2019-02-26T08:07:01.903Z,44.10
2019-02-26T08:09:30.329Z,43.80
2019-02-26T08:11:58.769Z,43.10
2019-02-26T08:14:27.241Z,43.50
2019-02-26T08:16:56.271Z,43.60
2019-02-26T08:19:29.625Z,43.10
2019-02-26T08:21:57.134Z,43.70
2019-02-26T08:24:25.804Z,43.50
2019-02-26T08:26:54.232Z,43.50
2019-02-26T08:29:24.523Z,43.50
2019-02-26T08:31:54.470Z,43.70
2019-02-26T08:34:23.063Z,43.10
2019-02-26T08:36:51.510Z,43.20
2019-02-26T08:39:19.958Z,43.20
2019-02-26T08:42:06.244Z,43.50
2019-02-26T08:44:34.698Z,44.50
2019-02-26T08:47:06.443Z,45.10
2019-02-26T08:49:35.339Z,44.30
2019-02-26T08:52:04.239Z,44.40
2019-02-26T08:54:33.205Z,43.40
2019-02-26T08:57:02.882Z,43.10
2019-02-26T08:59:31.325Z,42.40
2019-02-26T09:01:59.778Z,41.80
2019-02-26T09:04:28.296Z,41.10
2019-02-26T09:06:57.632Z,40.30
2019-02-26T09:09:28.218Z,40.20
2019-02-26T09:11:58.853Z,41.10
2019-02-26T09:14:32.136Z,40.40
2019-02-26T09:16:59.690Z,39.60
2019-02-26T09:19:30.339Z,39.80
2019-02-26T09:21:58.806Z,40.40
2019-02-26T09:24:27.248Z,39.20
2019-02-26T09:26:57.577Z,39.10
2019-02-26T09:29:25.917Z,38.70
2019-02-26T09:31:54.374Z,38.70
2019-02-26T09:34:26.028Z,39.00
2019-02-26T09:36:55.531Z,38.80
2019-02-26T09:39:23.498Z,41.00
2019-02-26T09:41:51.966Z,40.10
2019-02-26T09:44:20.432Z,39.60
2019-02-26T09:46:48.873Z,38.80
2019-02-26T09:49:17.629Z,39.40
2019-02-26T09:51:46.076Z,39.60
2019-02-26T09:54:15.991Z,40.30
2019-02-26T09:56:45.427Z,40.60
2019-02-26T09:59:14.801Z,40.20
2019-02-26T10:01:43.329Z,39.20
2019-02-26T10:04:11.849Z,39.50
2019-02-26T10:06:42.415Z,39.60
2019-02-26T10:09:13.100Z,39.70
2019-02-26T10:11:42.449Z,39.30
2019-02-26T10:14:12.694Z,39.00
2019-02-26T10:16:41.424Z,39.00
2019-02-26T10:19:10.645Z,39.10
2019-02-26T10:21:42.406Z,38.90
2019-02-26T10:24:10.321Z,38.00
2019-02-26T10:26:40.972Z,38.40
2019-02-26T10:29:09.006Z,37.50
2019-02-26T10:31:40.394Z,37.50
2019-02-26T10:34:10.062Z,37.10
2019-02-26T10:36:43.122Z,36.90
2019-02-26T10:39:08.625Z,37.10
2019-02-26T10:41:39.371Z,37.30
2019-02-26T10:44:07.431Z,37.20
2019-02-26T10:46:37.168Z,36.60
2019-02-26T10:49:06.602Z,36.10
2019-02-26T10:51:35.073Z,35.20
2019-02-26T10:54:05.803Z,35.10
2019-02-26T10:56:38.586Z,34.50
2019-02-26T10:59:06.865Z,33.60
2019-02-26T11:01:34.297Z,33.80
2019-02-26T11:04:04.536Z,34.00
2019-02-26T11:06:35.797Z,34.80
2019-02-26T11:09:04.719Z,32.30
2019-02-26T11:11:35.105Z,32.80
2019-02-26T11:14:05.328Z,33.80
2019-02-26T11:16:35.849Z,32.60
2019-02-26T11:19:04.353Z,32.10
2019-02-26T11:21:33.740Z,31.40
2019-02-26T11:24:03.661Z,32.70
2019-02-26T11:26:33.463Z,30.60
2019-02-26T11:29:02.952Z,30.40
2019-02-26T11:31:31.496Z,30.50
2019-02-26T11:34:02.891Z,33.50
2019-02-26T11:36:31.273Z,32.00
2019-02-26T11:39:02.280Z,31.80
2019-02-26T11:41:31.762Z,32.10
2019-02-26T11:44:01.326Z,32.00
2019-02-26T11:46:30.599Z,32.20
2019-02-26T11:49:00.360Z,31.10
2019-02-26T11:51:36.883Z,32.50
2019-02-26T11:54:00.060Z,31.40
2019-02-26T11:56:29.229Z,32.00
2019-02-26T11:58:57.720Z,32.20
2019-02-26T12:01:27.046Z,31.20
2019-02-26T12:03:58.644Z,31.40
2019-02-26T12:06:26.189Z,33.10
2019-02-26T12:08:54.932Z,30.90
2019-02-26T12:11:23.489Z,30.50
2019-02-26T12:13:53.186Z,30.60
2019-02-26T12:16:22.218Z,31.00
2019-02-26T12:18:50.666Z,30.60
2019-02-26T12:21:19.118Z,31.30
2019-02-26T12:23:47.591Z,29.70
2019-02-26T12:26:18.617Z,28.70
2019-02-26T12:28:46.204Z,28.70
2019-02-26T12:31:14.684Z,28.70
2019-02-26T12:33:43.129Z,28.60
2019-02-26T12:36:11.581Z,28.20
2019-02-26T12:38:40.117Z,27.30
2019-02-26T12:41:12.318Z,27.20
2019-02-26T12:43:42.704Z,27.70
2019-02-26T12:46:09.454Z,27.40
2019-02-26T12:48:40.628Z,28.10
2019-02-26T12:51:08.077Z,27.20
2019-02-26T12:53:40.448Z,28.40
2019-02-26T12:56:08.969Z,26.90
2019-02-26T12:58:38.786Z,27.00
2019-02-26T13:01:08.181Z,28.60
2019-02-26T13:03:39.836Z,28.30
2019-02-26T13:06:11.419Z,27.50
2019-02-26T13:08:39.884Z,27.70
2019-02-26T13:11:07.691Z,27.20
2019-02-26T13:13:36.546Z,26.00
2019-02-26T13:16:05.058Z,25.30
2019-02-26T13:18:33.907Z,24.90
2019-02-26T13:21:03.700Z,24.90
2019-02-26T13:23:32.925Z,25.30
2019-02-26T13:26:03.730Z,25.20
2019-02-26T13:28:31.939Z,25.70
2019-02-26T13:31:02.358Z,25.20
2019-02-26T13:33:35.210Z,26.30
2019-02-26T13:36:04.597Z,25.00
2019-02-26T13:38:40.669Z,24.80
2019-02-26T13:41:27.243Z,26.10
2019-02-26T13:43:32.378Z,25.10
2019-02-26T13:46:00.856Z,25.10
2019-02-26T13:48:29.402Z,25.40
2019-02-26T13:50:58.525Z,26.50
2019-02-26T13:53:26.974Z,25.80
2019-02-26T13:55:55.446Z,25.30
2019-02-26T13:58:23.849Z,24.10
2019-02-26T14:00:52.342Z,24.80
2019-02-26T14:03:20.765Z,25.00
2019-02-26T14:05:49.252Z,25.40
2019-02-26T14:08:17.715Z,24.30
2019-02-26T14:10:46.556Z,26.60
2019-02-26T14:13:15.073Z,26.60
2019-02-26T14:15:43.820Z,26.10
2019-02-26T14:18:12.294Z,27.40
2019-02-26T14:20:40.743Z,27.00
2019-02-26T14:23:09.186Z,27.50
2019-02-26T14:25:37.650Z,27.40
2019-02-26T14:28:06.171Z,28.40
2019-02-26T14:30:34.715Z,28.30
2019-02-26T14:33:03.503Z,29.10
2019-02-26T14:35:32.062Z,29.40
2019-02-26T14:38:00.562Z,30.00
2019-02-26T14:40:29.014Z,29.50
2019-02-26T14:42:57.482Z,30.50
2019-02-26T14:45:28.254Z,31.00
2019-02-26T14:47:56.734Z,31.60
2019-02-26T14:50:26.343Z,32.00
2019-02-26T14:52:55.092Z,31.30
2019-02-26T14:55:23.647Z,31.20
2019-02-26T14:57:52.409Z,30.60
2019-02-26T15:00:57.142Z,31.00
2019-02-26T15:03:18.129Z,31.40
2019-02-26T15:05:46.714Z,32.50
2019-02-26T15:08:15.157Z,31.40
2019-02-26T15:10:43.602Z,33.70
2019-02-26T15:13:12.083Z,34.30
2019-02-26T15:15:40.974Z,34.40
2019-02-26T15:18:09.506Z,34.00
2019-02-26T15:20:38.096Z,35.10
2019-02-26T15:23:06.583Z,34.50
2019-02-26T15:25:35.173Z,36.80
2019-02-26T15:28:05.331Z,36.90
2019-02-26T15:30:33.968Z,38.20
2019-02-26T15:33:10.805Z,37.80
2019-02-26T15:35:33.325Z,37.70
2019-02-26T15:38:02.101Z,39.70
2019-02-26T15:40:30.554Z,39.40
2019-02-26T15:42:59.370Z,40.00
2019-02-26T15:45:30.208Z,41.00
2019-02-26T15:47:58.753Z,40.90
2019-02-26T15:50:27.261Z,39.80
2019-02-26T15:52:55.710Z,40.00
2019-02-26T15:55:28.006Z,39.50
2019-02-26T15:57:56.336Z,39.40
2019-02-26T16:00:25.798Z,39.30
2019-02-26T16:02:59.005Z,39.10
2019-02-26T16:05:45.294Z,39.10
2019-02-26T16:08:13.834Z,40.00
2019-02-26T16:10:42.281Z,41.10
2019-02-26T16:13:10.732Z,40.40
2019-02-26T16:15:39.781Z,40.00
2019-02-26T16:18:08.294Z,40.10
2019-02-26T16:20:36.880Z,40.20
2019-02-26T16:23:05.422Z,40.70
2019-02-26T16:25:33.899Z,42.00
2019-02-26T16:28:02.835Z,40.80
2019-02-26T16:30:31.551Z,41.30
2019-02-26T16:33:00.085Z,41.50
2019-02-26T16:35:28.622Z,41.50
2019-02-26T16:37:57.077Z,42.70
2019-02-26T16:40:25.531Z,42.20
2019-02-26T16:42:53.998Z,43.10
2019-02-26T16:45:29.174Z,43.00
2019-02-26T16:47:57.709Z,41.90
2019-02-26T16:50:31.389Z,42.60
2019-02-26T16:53:01.077Z,42.40
2019-02-26T16:55:30.252Z,43.20
2019-02-26T16:58:02.352Z,44.00
2019-02-26T17:00:31.230Z,43.90
2019-02-26T17:03:00.741Z,43.60
2019-02-26T17:05:29.942Z,44.10
2019-02-26T17:07:58.844Z,43.30
2019-02-26T17:10:30.210Z,43.90
2019-02-26T17:13:01.760Z,44.10
2019-02-26T17:15:33.632Z,45.20
2019-02-26T17:18:02.204Z,45.00
2019-02-26T17:20:30.724Z,45.30
2019-02-26T17:22:59.274Z,43.40
2019-02-26T17:25:29.043Z,43.90
2019-02-26T17:27:58.066Z,44.70
2019-02-26T17:30:26.936Z,45.10
2019-02-26T17:32:55.748Z,44.50
2019-02-26T17:35:26.696Z,45.10
2019-02-26T17:37:54.356Z,45.30
2019-02-26T17:40:23.865Z,44.80
2019-02-26T17:42:54.252Z,45.30
2019-02-26T17:45:31.608Z,44.40
2019-02-26T17:48:00.127Z,45.80
2019-02-26T17:50:43.389Z,45.30
2019-02-26T17:53:11.897Z,45.90
2019-02-26T17:55:40.722Z,45.60
2019-02-26T17:58:10.584Z,46.80
2019-02-26T18:00:41.097Z,46.10
2019-02-26T18:03:09.574Z,46.00
2019-02-26T18:05:50.418Z,46.70
2019-02-26T18:08:08.563Z,46.00
2019-02-26T18:10:37.005Z,46.70
2019-02-26T18:13:05.984Z,45.90
2019-02-26T18:15:34.558Z,45.40
2019-02-26T18:18:02.979Z,45.40
2019-02-26T18:20:31.482Z,45.40
2019-02-26T18:23:00.775Z,45.90
2019-02-26T18:25:29.476Z,46.30
2019-02-26T18:27:58.250Z,46.00
2019-02-26T18:30:30.898Z,45.40
2019-02-26T18:32:59.553Z,46.70
2019-02-26T18:35:28.306Z,46.30
2019-02-26T18:37:56.836Z,46.70
2019-02-26T18:40:27.913Z,45.80
2019-02-26T18:42:55.532Z,45.40
2019-02-26T18:45:29.023Z,45.30
2019-02-26T18:47:58.113Z,44.60
2019-02-26T18:50:29.435Z,45.90
2019-02-26T18:52:58.595Z,46.00
2019-02-26T18:55:28.342Z,46.10
2019-02-26T18:57:57.618Z,46.50
2019-02-26T19:00:34.239Z,46.00
2019-02-26T19:03:02.726Z,46.10
2019-02-26T19:05:31.407Z,45.60
2019-02-26T19:07:59.863Z,45.20
2019-02-26T19:10:28.333Z,45.50
2019-02-26T19:12:56.780Z,45.90
2019-02-26T19:15:35.301Z,47.10
2019-02-26T19:18:03.753Z,46.30
2019-02-26T19:20:37.282Z,44.70
2019-02-26T19:23:05.752Z,44.90
2019-02-26T19:25:34.346Z,45.80
2019-02-26T19:28:02.823Z,45.30
2019-02-26T19:30:31.270Z,45.90
2019-02-26T19:33:00.046Z,46.50
2019-02-26T19:35:28.519Z,46.10
2019-02-26T19:38:01.865Z,45.10
2019-02-26T19:40:45.798Z,44.60
2019-02-26T19:43:14.246Z,45.30
2019-02-26T19:45:44.850Z,44.50
2019-02-26T19:48:12.889Z,44.60
2019-02-26T19:50:45.426Z,46.10
2019-02-26T19:53:11.661Z,66.30
2019-02-26T19:55:42.027Z,57.70
2019-02-26T19:58:10.503Z,53.90
2019-02-26T20:00:38.963Z,42.50
2019-02-26T20:03:07.481Z,42.50
2019-02-26T20:05:36.082Z,42.40
2019-02-26T20:08:05.285Z,43.00
2019-02-26T20:10:34.680Z,44.00
2019-02-26T20:13:04.096Z,45.00
2019-02-26T20:15:33.270Z,45.70
2019-02-26T20:18:01.847Z,45.10
2019-02-26T20:20:30.585Z,44.80
2019-02-26T20:22:59.239Z,45.10
2019-02-26T20:25:27.868Z,45.10
2019-02-26T20:28:01.942Z,45.40
2019-02-26T20:30:26.794Z,43.80
2019-02-26T20:32:55.491Z,47.10
2019-02-26T20:35:24.109Z,49.10
2019-02-26T20:37:53.089Z,44.40
2019-02-26T20:40:23.154Z,44.10
2019-02-26T20:42:51.943Z,43.80
2019-02-26T20:45:22.689Z,43.30
2019-02-26T20:47:51.562Z,42.60
2019-02-26T20:50:22.386Z,44.50
2019-02-26T20:52:51.104Z,43.70
2019-02-26T20:55:24.259Z,44.40
2019-02-26T20:57:52.967Z,44.50
2019-02-26T21:00:24.930Z,45.10
2019-02-26T21:02:52.544Z,44.60
2019-02-26T21:05:21.635Z,45.60
2019-02-26T21:07:50.263Z,54.90
2019-02-26T21:10:20.222Z,44.40
2019-02-26T21:12:49.473Z,43.80
2019-02-26T21:15:22.912Z,43.20
2019-02-26T21:17:51.553Z,43.30
2019-02-26T21:20:20.341Z,43.60
2019-02-26T21:22:48.958Z,44.90
2019-02-26T21:25:17.675Z,44.70
2019-02-26T21:27:46.299Z,43.80
2019-02-26T21:30:20.700Z,44.80
2019-02-26T21:32:49.770Z,44.70
2019-02-26T21:35:20.508Z,44.20
2019-02-26T21:37:49.092Z,44.20
2019-02-26T21:40:17.858Z,44.20
2019-02-26T21:42:46.730Z,44.70
2019-02-26T21:45:18.974Z,46.50
2019-02-26T21:47:47.932Z,45.30
2019-02-26T21:50:16.911Z,45.30
2019-02-26T21:52:59.156Z,44.60
2019-02-26T21:55:17.378Z,45.20
2019-02-26T21:57:46.002Z,45.40
2019-02-26T22:00:20.187Z,45.60
2019-02-26T22:02:51.956Z,45.10
2019-02-26T22:05:19.508Z,45.30
2019-02-26T22:07:52.096Z,45.90
2019-02-26T22:10:19.920Z,45.70
2019-02-26T22:12:48.606Z,45.10
2019-02-26T22:15:17.687Z,45.10
2019-02-26T22:17:46.341Z,44.80
2019-02-26T22:20:22.061Z,44.30
2019-02-26T22:22:46.980Z,44.20
2019-02-26T22:25:17.357Z,45.40
2019-02-26T22:27:46.165Z,45.90
2019-02-26T22:30:22.147Z,44.90
2019-02-26T22:32:49.920Z,44.70
2019-02-26T22:35:18.538Z,44.60
2019-02-26T22:37:47.195Z,45.10
2019-02-26T22:40:16.269Z,45.30
2019-02-26T22:42:44.919Z,44.90
2019-02-26T22:45:16.939Z,45.10
2019-02-26T22:47:45.582Z,46.40
2019-02-26T22:50:15.337Z,46.40
2019-02-26T22:52:44.229Z,47.20
2019-02-26T22:55:16.570Z,47.10
2019-02-26T22:57:47.245Z,46.40
2019-02-26T23:00:35.435Z,45.90
2019-02-26T23:03:04.765Z,45.30
2019-02-26T23:05:33.397Z,44.30
2019-02-26T23:08:02.048Z,44.60
2019-02-26T23:10:30.810Z,45.00
2019-02-26T23:12:59.580Z,45.10
2019-02-26T23:15:28.363Z,45.20
2019-02-26T23:17:58.374Z,44.80
2019-02-26T23:20:27.933Z,45.30
2019-02-26T23:22:56.651Z,45.70
2019-02-26T23:25:25.289Z,45.40
2019-02-26T23:27:53.986Z,44.00
2019-02-26T23:30:24.922Z,44.70
2019-02-26T23:32:53.037Z,45.00
2019-02-26T23:35:22.153Z,44.70
2019-02-26T23:37:50.851Z,45.70
2019-02-26T23:40:20.544Z,45.40
2019-02-26T23:42:49.854Z,45.90
2019-02-26T23:45:18.622Z,46.50
2019-02-26T23:47:47.319Z,46.30
2019-02-26T23:50:16.510Z,45.00
2019-02-26T23:52:45.706Z,44.80
2019-02-26T23:55:14.711Z,44.50
2019-02-26T23:57:43.363Z,43.90
